LAN4550 SBGR-SBCT
Flight info
| Callsign | LAN4550 |
|---|---|
| Flight time | 0h 38m |
| Altitude | 30000 |
| Route | SOVSI UZ85 RAXIT |
| Aircraft | A306/H-SDE3FGHIRWY/LB1 |
Departure
| Time | 2026-05-08 07:39 |
|---|---|
| Airport | São Paulo/Guarulhos–Governor André Franco Montoro International Airport (SBGR) |
Arrival
| Time | 2026-05-08 08:17 |
|---|---|
| Airport | Curitiba-Afonso Pena International Airport (SBCT) |
| Time | Latitude | Longitude | Altitude | Speed | Heading |
|---|---|---|---|---|---|
| 2026-05-08 07:24 | -23.42899 | -46.47934 | 2471 ft | 0 kts | 302° |
| 2026-05-08 07:31 | -23.42905 | -46.47924 | 2471 ft | 4 kts | 292° |
| 2026-05-08 07:32 | -23.42911 | -46.47907 | 2473 ft | 4 kts | 224° |
| 2026-05-08 07:32 | -23.42915 | -46.47905 | 2472 ft | 4 kts | 164° |
| 2026-05-08 07:32 | -23.42893 | -46.47909 | 2476 ft | 4 kts | 212° |
| 2026-05-08 07:32 | -23.42887 | -46.47913 | 2474 ft | 1 kts | 285° |
| 2026-05-08 07:33 | -23.42890 | -46.47888 | 2473 ft | 4 kts | 255° |
| 2026-05-08 07:33 | -23.42879 | -46.47865 | 2471 ft | 4 kts | 218° |
| 2026-05-08 07:33 | -23.42856 | -46.47851 | 2471 ft | 4 kts | 193° |
| 2026-05-08 07:33 | -23.42833 | -46.47849 | 2471 ft | 1 kts | 169° |
| 2026-05-08 07:34 | -23.42832 | -46.47849 | 2471 ft | 0 kts | 169° |
| 2026-05-08 07:35 | -23.42841 | -46.47847 | 2471 ft | 5 kts | 169° |
| 2026-05-08 07:36 | -23.42907 | -46.47840 | 2470 ft | 14 kts | 189° |
| 2026-05-08 07:36 | -23.42979 | -46.47940 | 2471 ft | 21 kts | 249° |
| 2026-05-08 07:36 | -23.43028 | -46.48101 | 2474 ft | 22 kts | 254° |
| 2026-05-08 07:36 | -23.43053 | -46.48259 | 2471 ft | 20 kts | 263° |
| 2026-05-08 07:37 | -23.43071 | -46.48406 | 2476 ft | 18 kts | 259° |
| 2026-05-08 07:37 | -23.43132 | -46.48425 | 2476 ft | 13 kts | 178° |
| 2026-05-08 07:37 | -23.43236 | -46.48397 | 2475 ft | 18 kts | 158° |
| 2026-05-08 07:37 | -23.43357 | -46.48350 | 2470 ft | 22 kts | 160° |
| 2026-05-08 07:38 | -23.43396 | -46.48213 | 2472 ft | 26 kts | 77° |
| 2026-05-08 07:38 | -23.43301 | -46.47864 | 2468 ft | 78 kts | 73° |
| 2026-05-08 07:38 | -23.43091 | -46.47085 | 2471 ft | 135 kts | 73° |
| 2026-05-08 07:38 | -23.42783 | -46.45929 | 2530 ft | 179 kts | 72° |
| 2026-05-08 07:39 | -23.42432 | -46.44557 | 3073 ft | 199 kts | 72° |
| 2026-05-08 07:39 | -23.42052 | -46.43039 | 3764 ft | 215 kts | 70° |
| 2026-05-08 07:39 | -23.41645 | -46.41425 | 4496 ft | 231 kts | 65° |
| 2026-05-08 07:39 | -23.41102 | -46.39628 | 4701 ft | 268 kts | 63° |
| 2026-05-08 07:40 | -23.40477 | -46.37673 | 5134 ft | 275 kts | 66° |
| 2026-05-08 07:40 | -23.40284 | -46.35571 | 5789 ft | 289 kts | 92° |
| 2026-05-08 07:40 | -23.40814 | -46.33420 | 6482 ft | 300 kts | 104° |
| 2026-05-08 07:40 | -23.41524 | -46.31262 | 7138 ft | 305 kts | 105° |
| 2026-05-08 07:41 | -23.42261 | -46.29083 | 7812 ft | 308 kts | 105° |
| 2026-05-08 07:41 | -23.43212 | -46.26983 | 8466 ft | 315 kts | 124° |
| 2026-05-08 07:41 | -23.44884 | -46.25444 | 9018 ft | 319 kts | 154° |
| 2026-05-08 07:41 | -23.47019 | -46.24903 | 9183 ft | 316 kts | 186° |
| 2026-05-08 07:42 | -23.49183 | -46.25293 | 9735 ft | 317 kts | 196° |
| 2026-05-08 07:42 | -23.51333 | -46.25826 | 10626 ft | 317 kts | 197° |
| 2026-05-08 07:42 | -23.53440 | -46.26590 | 11296 ft | 324 kts | 210° |
| 2026-05-08 07:42 | -23.55269 | -46.28083 | 11619 ft | 336 kts | 232° |
| 2026-05-08 07:43 | -23.56464 | -46.30289 | 11931 ft | 345 kts | 254° |
| 2026-05-08 07:43 | -23.57078 | -46.32870 | 12241 ft | 359 kts | 261° |
| 2026-05-08 07:43 | -23.57586 | -46.35587 | 12571 ft | 372 kts | 262° |
| 2026-05-08 07:43 | -23.58110 | -46.38387 | 13042 ft | 380 kts | 261° |
| 2026-05-08 07:44 | -23.58654 | -46.41222 | 13599 ft | 385 kts | 261° |
| 2026-05-08 07:44 | -23.59213 | -46.44094 | 14129 ft | 389 kts | 260° |
| 2026-05-08 07:44 | -23.59781 | -46.46988 | 14660 ft | 392 kts | 260° |
| 2026-05-08 07:44 | -23.60356 | -46.49910 | 15192 ft | 395 kts | 260° |
| 2026-05-08 07:45 | -23.60894 | -46.52861 | 15695 ft | 398 kts | 262° |
| 2026-05-08 07:45 | -23.61347 | -46.55841 | 15990 ft | 399 kts | 263° |
| 2026-05-08 07:45 | -23.61783 | -46.58827 | 16044 ft | 400 kts | 263° |
| 2026-05-08 07:45 | -23.62219 | -46.61828 | 16153 ft | 402 kts | 263° |
| 2026-05-08 07:46 | -23.62820 | -46.64819 | 16671 ft | 407 kts | 255° |
| 2026-05-08 07:46 | -23.64003 | -46.67644 | 17247 ft | 413 kts | 243° |
| 2026-05-08 07:46 | -23.65516 | -46.70325 | 17770 ft | 417 kts | 240° |
| 2026-05-08 07:46 | -23.67085 | -46.72996 | 18296 ft | 420 kts | 240° |
| 2026-05-08 07:47 | -23.68669 | -46.75694 | 18748 ft | 422 kts | 240° |
| 2026-05-08 07:47 | -23.70247 | -46.78396 | 19220 ft | 423 kts | 240° |
| 2026-05-08 07:47 | -23.71839 | -46.81104 | 19699 ft | 424 kts | 240° |
| 2026-05-08 07:47 | -23.73440 | -46.83815 | 20168 ft | 425 kts | 240° |
| 2026-05-08 07:48 | -23.75043 | -46.86533 | 20633 ft | 427 kts | 240° |
| 2026-05-08 07:48 | -23.76652 | -46.89265 | 21064 ft | 429 kts | 240° |
| 2026-05-08 07:48 | -23.78265 | -46.92004 | 21520 ft | 430 kts | 240° |
| 2026-05-08 07:48 | -23.79884 | -46.94758 | 21951 ft | 431 kts | 240° |
| 2026-05-08 07:49 | -23.81504 | -46.97514 | 22391 ft | 433 kts | 240° |
| 2026-05-08 07:49 | -23.83134 | -47.00290 | 22835 ft | 434 kts | 240° |
| 2026-05-08 07:49 | -23.84767 | -47.03073 | 23253 ft | 437 kts | 241° |
| 2026-05-08 07:49 | -23.86410 | -47.05876 | 23644 ft | 439 kts | 241° |
| 2026-05-08 07:50 | -23.88061 | -47.08693 | 23978 ft | 441 kts | 241° |
| 2026-05-08 07:50 | -23.89715 | -47.11516 | 24298 ft | 443 kts | 241° |
| 2026-05-08 07:50 | -23.91380 | -47.14361 | 24652 ft | 444 kts | 241° |
| 2026-05-08 07:50 | -23.93046 | -47.17208 | 24990 ft | 446 kts | 241° |
| 2026-05-08 07:51 | -23.94721 | -47.20071 | 25327 ft | 448 kts | 241° |
| 2026-05-08 07:51 | -23.96398 | -47.22939 | 25648 ft | 449 kts | 241° |
| 2026-05-08 07:51 | -23.98085 | -47.25824 | 25965 ft | 451 kts | 241° |
| 2026-05-08 07:51 | -23.99775 | -47.28718 | 26273 ft | 452 kts | 241° |
| 2026-05-08 07:52 | -24.01473 | -47.31627 | 26581 ft | 455 kts | 241° |
| 2026-05-08 07:52 | -24.03174 | -47.34544 | 26914 ft | 456 kts | 242° |
| 2026-05-08 07:52 | -24.04884 | -47.37478 | 27234 ft | 457 kts | 241° |
| 2026-05-08 07:52 | -24.06593 | -47.40413 | 27532 ft | 458 kts | 242° |
| 2026-05-08 07:53 | -24.08316 | -47.43363 | 27816 ft | 460 kts | 241° |
| 2026-05-08 07:53 | -24.10223 | -47.46141 | 28088 ft | 467 kts | 233° |
| 2026-05-08 07:53 | -24.12625 | -47.48568 | 28453 ft | 474 kts | 222° |
| 2026-05-08 07:53 | -24.15352 | -47.50595 | 28862 ft | 474 kts | 218° |
| 2026-05-08 07:54 | -24.18137 | -47.52525 | 29262 ft | 473 kts | 217° |
| 2026-05-08 07:54 | -24.20910 | -47.54434 | 29726 ft | 470 kts | 217° |
| 2026-05-08 07:54 | -24.23677 | -47.56347 | 29877 ft | 471 kts | 217° |
| 2026-05-08 07:55 | -24.29234 | -47.60207 | 29887 ft | 475 kts | 217° |
| 2026-05-08 07:55 | -24.34819 | -47.64093 | 29875 ft | 476 kts | 217° |
| 2026-05-08 07:56 | -24.40420 | -47.67997 | 29869 ft | 476 kts | 218° |
| 2026-05-08 07:56 | -24.45472 | -47.72572 | 29868 ft | 469 kts | 227° |
| 2026-05-08 07:57 | -24.50248 | -47.77457 | 29864 ft | 469 kts | 228° |
| 2026-05-08 07:57 | -24.55025 | -47.82343 | 29863 ft | 469 kts | 228° |
| 2026-05-08 07:58 | -24.59810 | -47.87232 | 29862 ft | 470 kts | 228° |
| 2026-05-08 07:58 | -24.64603 | -47.92133 | 29861 ft | 471 kts | 228° |
| 2026-05-08 07:59 | -24.69396 | -47.97038 | 29863 ft | 471 kts | 228° |
| 2026-05-08 07:59 | -24.74149 | -48.01901 | 29775 ft | 455 kts | 228° |
| 2026-05-08 07:59 | -24.76436 | -48.04237 | 29429 ft | 442 kts | 229° |
| 2026-05-08 08:00 | -24.78679 | -48.06537 | 28699 ft | 440 kts | 228° |
| 2026-05-08 08:00 | -24.80914 | -48.08834 | 28023 ft | 438 kts | 229° |
| 2026-05-08 08:00 | -24.83128 | -48.11108 | 27361 ft | 434 kts | 229° |
| 2026-05-08 08:00 | -24.85330 | -48.13373 | 26719 ft | 431 kts | 229° |
| 2026-05-08 08:01 | -24.87507 | -48.15609 | 26199 ft | 426 kts | 229° |
| 2026-05-08 08:01 | -24.89667 | -48.17832 | 25574 ft | 425 kts | 229° |
| 2026-05-08 08:01 | -24.91815 | -48.20044 | 25114 ft | 421 kts | 229° |
| 2026-05-08 08:01 | -24.93952 | -48.22247 | 24491 ft | 420 kts | 229° |
| 2026-05-08 08:02 | -24.96072 | -48.24429 | 24012 ft | 415 kts | 229° |
| 2026-05-08 08:02 | -24.98182 | -48.26601 | 23457 ft | 414 kts | 229° |
| 2026-05-08 08:02 | -25.00274 | -48.28758 | 22944 ft | 409 kts | 229° |
| 2026-05-08 08:02 | -25.02344 | -48.30894 | 22296 ft | 407 kts | 229° |
| 2026-05-08 08:03 | -25.04409 | -48.33027 | 21711 ft | 405 kts | 229° |
| 2026-05-08 08:03 | -25.06459 | -48.35145 | 21155 ft | 403 kts | 229° |
| 2026-05-08 08:03 | -25.08504 | -48.37260 | 20578 ft | 402 kts | 228° |
| 2026-05-08 08:03 | -25.10527 | -48.39349 | 19999 ft | 395 kts | 228° |
| 2026-05-08 08:04 | -25.12506 | -48.41419 | 19036 ft | 390 kts | 230° |
| 2026-05-08 08:04 | -25.14382 | -48.43576 | 18011 ft | 392 kts | 231° |
| 2026-05-08 08:04 | -25.16230 | -48.45775 | 17470 ft | 387 kts | 231° |
| 2026-05-08 08:04 | -25.18029 | -48.47914 | 16911 ft | 376 kts | 231° |
| 2026-05-08 08:05 | -25.19801 | -48.50026 | 16136 ft | 373 kts | 231° |
| 2026-05-08 08:05 | -25.21546 | -48.52103 | 15597 ft | 364 kts | 231° |
| 2026-05-08 08:05 | -25.23244 | -48.54118 | 15174 ft | 353 kts | 231° |
| 2026-05-08 08:05 | -25.24893 | -48.56079 | 14766 ft | 345 kts | 232° |
| 2026-05-08 08:06 | -25.26517 | -48.58015 | 14371 ft | 343 kts | 232° |
| 2026-05-08 08:06 | -25.28134 | -48.59944 | 13985 ft | 340 kts | 232° |
| 2026-05-08 08:06 | -25.29735 | -48.61853 | 13597 ft | 336 kts | 232° |
| 2026-05-08 08:06 | -25.31310 | -48.63729 | 13179 ft | 332 kts | 232° |
| 2026-05-08 08:07 | -25.32876 | -48.65596 | 12821 ft | 331 kts | 233° |
| 2026-05-08 08:07 | -25.34441 | -48.67465 | 12431 ft | 330 kts | 233° |
| 2026-05-08 08:07 | -25.35998 | -48.69322 | 12053 ft | 327 kts | 233° |
| 2026-05-08 08:07 | -25.37519 | -48.71137 | 11689 ft | 325 kts | 233° |
| 2026-05-08 08:08 | -25.39068 | -48.72985 | 11312 ft | 322 kts | 234° |
| 2026-05-08 08:08 | -25.40582 | -48.74792 | 10954 ft | 320 kts | 234° |
| 2026-05-08 08:08 | -25.42091 | -48.76596 | 10585 ft | 318 kts | 234° |
| 2026-05-08 08:08 | -25.43585 | -48.78384 | 10258 ft | 314 kts | 234° |
| 2026-05-08 08:09 | -25.45045 | -48.80126 | 10030 ft | 304 kts | 235° |
| 2026-05-08 08:09 | -25.46460 | -48.81813 | 9789 ft | 293 kts | 236° |
| 2026-05-08 08:09 | -25.47836 | -48.83457 | 9298 ft | 291 kts | 236° |
| 2026-05-08 08:09 | -25.49202 | -48.85097 | 8858 ft | 287 kts | 236° |
| 2026-05-08 08:10 | -25.50546 | -48.86708 | 8547 ft | 283 kts | 236° |
| 2026-05-08 08:10 | -25.51878 | -48.88309 | 8238 ft | 283 kts | 236° |
| 2026-05-08 08:10 | -25.53205 | -48.89908 | 7920 ft | 281 kts | 236° |
| 2026-05-08 08:10 | -25.54530 | -48.91504 | 7574 ft | 280 kts | 236° |
| 2026-05-08 08:11 | -25.55864 | -48.93094 | 7334 ft | 284 kts | 236° |
| 2026-05-08 08:11 | -25.57208 | -48.94693 | 7087 ft | 284 kts | 233° |
| 2026-05-08 08:11 | -25.58831 | -48.96001 | 6978 ft | 296 kts | 214° |
| 2026-05-08 08:11 | -25.60684 | -48.97003 | 6954 ft | 296 kts | 214° |
| 2026-05-08 08:12 | -25.62544 | -48.97992 | 6941 ft | 295 kts | 216° |
| 2026-05-08 08:12 | -25.64310 | -48.99108 | 6808 ft | 290 kts | 221° |
| 2026-05-08 08:12 | -25.65666 | -49.00596 | 6524 ft | 260 kts | 251° |
| 2026-05-08 08:12 | -25.65970 | -49.02396 | 6323 ft | 227 kts | 286° |
| 2026-05-08 08:13 | -25.65247 | -49.03871 | 6081 ft | 217 kts | 315° |
| 2026-05-08 08:13 | -25.64168 | -49.04939 | 5859 ft | 197 kts | 319° |
| 2026-05-08 08:13 | -25.63209 | -49.05914 | 5607 ft | 177 kts | 316° |
| 2026-05-08 08:13 | -25.62375 | -49.06864 | 5410 ft | 170 kts | 315° |
| 2026-05-08 08:14 | -25.61560 | -49.07783 | 5182 ft | 162 kts | 316° |
| 2026-05-08 08:14 | -25.60813 | -49.08625 | 5005 ft | 144 kts | 316° |
| 2026-05-08 08:14 | -25.60145 | -49.09377 | 4832 ft | 130 kts | 317° |
| 2026-05-08 08:14 | -25.59543 | -49.10054 | 4696 ft | 119 kts | 317° |
| 2026-05-08 08:15 | -25.59164 | -49.10481 | 4591 ft | 117 kts | 317° |
| 2026-05-08 08:15 | -25.58582 | -49.11133 | 4417 ft | 122 kts | 316° |
| 2026-05-08 08:15 | -25.57969 | -49.11823 | 4256 ft | 128 kts | 317° |
| 2026-05-08 08:15 | -25.57344 | -49.12528 | 4104 ft | 128 kts | 317° |
| 2026-05-08 08:16 | -25.56720 | -49.13229 | 3918 ft | 126 kts | 317° |
| 2026-05-08 08:16 | -25.56096 | -49.13926 | 3759 ft | 130 kts | 316° |
| 2026-05-08 08:16 | -25.55437 | -49.14662 | 3594 ft | 140 kts | 315° |
| 2026-05-08 08:16 | -25.54737 | -49.15453 | 3451 ft | 145 kts | 316° |
| 2026-05-08 08:17 | -25.54040 | -49.16247 | 3217 ft | 144 kts | 314° |
| 2026-05-08 08:17 | -25.53349 | -49.17027 | 3006 ft | 135 kts | 316° |
| 2026-05-08 08:17 | -25.52771 | -49.17660 | 2987 ft | 89 kts | 316° |
| 2026-05-08 08:17 | -25.52536 | -49.17921 | 2987 ft | 17 kts | 315° |
| 2026-05-08 08:18 | -25.52493 | -49.17971 | 2988 ft | 0 kts | 316° |
| 2026-05-08 08:18 | -25.52481 | -49.17983 | 2988 ft | 7 kts | 316° |
| 2026-05-08 08:18 | -25.52422 | -49.18035 | 2988 ft | 7 kts | 311° |
| 2026-05-08 08:18 | -25.52435 | -49.18049 | 2987 ft | 5 kts | 184° |
| 2026-05-08 08:19 | -25.52525 | -49.18014 | 2987 ft | 15 kts | 178° |
| 2026-05-08 08:19 | -25.52623 | -49.18008 | 2988 ft | 13 kts | 176° |
| 2026-05-08 08:19 | -25.52710 | -49.18001 | 2988 ft | 12 kts | 176° |
| 2026-05-08 08:19 | -25.52789 | -49.17995 | 2987 ft | 12 kts | 176° |
| 2026-05-08 08:20 | -25.52867 | -49.17980 | 2986 ft | 10 kts | 144° |
| 2026-05-08 08:20 | -25.52896 | -49.17945 | 2988 ft | 4 kts | 137° |
| 2026-05-08 08:20 | -25.52942 | -49.17898 | 2988 ft | 15 kts | 137° |
| 2026-05-08 08:20 | -25.52980 | -49.17766 | 2988 ft | 21 kts | 93° |
| 2026-05-08 08:21 | -25.53024 | -49.17613 | 2989 ft | 20 kts | 126° |
| 2026-05-08 08:21 | -25.53115 | -49.17508 | 2990 ft | 18 kts | 135° |
| 2026-05-08 08:21 | -25.53207 | -49.17405 | 2992 ft | 18 kts | 134° |
| 2026-05-08 08:21 | -25.53289 | -49.17312 | 2994 ft | 16 kts | 134° |
| 2026-05-08 08:22 | -25.53360 | -49.17231 | 2995 ft | 14 kts | 134° |
| 2026-05-08 08:22 | -25.53443 | -49.17142 | 2996 ft | 15 kts | 153° |
| 2026-05-08 08:22 | -25.53518 | -49.17155 | 2997 ft | 10 kts | 171° |
| 2026-05-08 08:22 | -25.53589 | -49.17093 | 2998 ft | 19 kts | 136° |
| 2026-05-08 08:23 | -25.53666 | -49.17010 | 2999 ft | 14 kts | 135° |
| 2026-05-08 08:23 | -25.53741 | -49.16925 | 3001 ft | 16 kts | 133° |
| 2026-05-08 08:23 | -25.53780 | -49.16882 | 3001 ft | 8 kts | 136° |
| 2026-05-08 08:23 | -25.53818 | -49.16878 | 3001 ft | 2 kts | 206° |
| 2026-05-08 08:24 | -25.53829 | -49.16889 | 3001 ft | 4 kts | 221° |
| 2026-05-08 08:24 | -25.53835 | -49.16895 | 3004 ft | 2 kts | 221° |
| 2026-05-08 08:24 | -25.53839 | -49.16899 | 3003 ft | 0 kts | 222° |